Time;durP1;ratioP1;P1;durP2;ratioP2;P2;SDS_P1;SDS_P2;PMS_P1;PMS_P2;Temp;Humidity;BMP_temperature;BMP_pressure;BME280_temperature;BME280_humidity;BME280_pressure;Samples;Min_cycle;Max_cycle;Signal;HPM_P1;HPM_P2
2022/03/09 00:00:12;;;;;;;48.53;19.63;;;-3.60;99.90;;;;;;8348241;28;20235;-65
2022/03/09 00:04:12;;;;;;;46.80;22.27;;;-3.70;99.90;;;;;;8351790;28;20226;-64
2022/03/09 00:08:13;;;;;;;43.23;19.70;;;-3.70;99.90;;;;;;8343822;28;20215;-65
2022/03/09 00:12:14;;;;;;;33.53;16.60;;;-3.70;99.90;;;;;;8347407;28;20621;-65
2022/03/09 00:16:15;;;;;;;43.20;18.70;;;-3.80;99.90;;;;;;8345136;28;20217;-63
2022/03/09 00:20:15;;;;;;;56.03;20.37;;;-3.80;99.90;;;;;;8332558;28;20235;-64
2022/03/09 00:24:18;;;;;;;71.53;26.57;;;-3.90;99.90;;;;;;8351528;28;20261;-66
2022/03/09 00:28:19;;;;;;;71.37;26.57;;;-3.90;99.90;;;;;;8327343;28;20227;-65
2022/03/09 00:32:20;;;;;;;72.87;28.63;;;-3.90;99.90;;;;;;8326477;28;20234;-64
2022/03/09 00:36:21;;;;;;;77.33;27.77;;;-3.90;99.90;;;;;;8322142;28;20210;-64
2022/03/09 00:40:22;;;;;;;72.40;28.80;;;-3.90;99.90;;;;;;8335566;28;20219;-64
2022/03/09 00:44:23;;;;;;;76.73;29.67;;;-3.90;99.90;;;;;;8344063;28;20278;-63
2022/03/09 00:48:27;;;;;;;80.87;30.37;;;-3.90;99.90;;;;;;8322173;28;20205;-66
2022/03/09 00:52:28;;;;;;;81.27;31.73;;;-3.90;99.90;;;;;;8346623;28;20227;-63
2022/03/09 00:56:28;;;;;;;67.97;26.30;;;-3.90;99.90;;;;;;8343881;28;20508;-63
2022/03/09 01:00:29;;;;;;;64.97;24.67;;;-4.00;99.90;;;;;;8330352;28;20342;-65
2022/03/09 01:04:36;;;;;;;54.50;22.87;;;-4.00;99.90;;;;;;8325723;28;20529;-64
2022/03/09 01:08:37;;;;;;;60.00;25.90;;;-4.10;99.90;;;;;;8329496;28;20212;-66
2022/03/09 01:12:38;;;;;;;65.60;26.03;;;-4.10;99.90;;;;;;8345803;28;20217;-66
2022/03/09 01:16:41;;;;;;;72.23;28.57;;;-4.20;99.90;;;;;;8327692;28;20212;-64
2022/03/09 01:20:42;;;;;;;79.33;28.57;;;-4.20;99.90;;;;;;8329544;28;20304;-66
2022/03/09 01:24:45;;;;;;;63.10;26.33;;;-4.20;99.90;;;;;;8321505;28;20235;-63
2022/03/09 01:28:46;;;;;;;59.87;22.23;;;-4.20;99.90;;;;;;8330247;28;20288;-65
2022/03/09 01:32:47;;;;;;;50.63;19.50;;;-4.30;99.90;;;;;;8331110;28;20215;-63
2022/03/09 01:36:48;;;;;;;52.93;19.73;;;-4.20;99.90;;;;;;8326564;28;20234;-64
2022/03/09 01:40:48;;;;;;;44.53;19.53;;;-4.20;99.90;;;;;;8324586;28;20204;-64
2022/03/09 01:44:49;;;;;;;45.00;19.30;;;-4.20;99.90;;;;;;8345787;28;20277;-64
2022/03/09 01:48:50;;;;;;;45.37;18.37;;;-4.20;99.90;;;;;;8327849;28;20212;-65
2022/03/09 01:52:51;;;;;;;46.07;19.57;;;-4.10;99.90;;;;;;8346596;28;20207;-63
2022/03/09 01:56:52;;;;;;;46.43;21.33;;;-4.00;99.90;;;;;;8327871;28;20206;-65
2022/03/09 02:00:53;;;;;;;43.50;19.33;;;-3.40;99.90;;;;;;8327067;28;20239;-64
2022/03/09 02:04:54;;;;;;;41.33;16.80;;;-3.20;99.90;;;;;;8327926;28;20316;-63
2022/03/09 02:13:16;;;;;;;39.17;17.73;;;-2.90;99.90;;;;;;8346667;28;20266;-63
2022/03/09 02:17:19;;;;;;;41.90;18.50;;;-2.70;99.90;;;;;;8321484;28;20212;-63
2022/03/09 02:21:24;;;;;;;46.00;18.63;;;-2.70;99.90;;;;;;8331748;28;20211;-66
2022/03/09 02:25:25;;;;;;;39.47;18.10;;;-2.60;99.90;;;;;;8346435;28;20236;-64
2022/03/09 02:29:26;;;;;;;37.97;18.17;;;-2.50;99.90;;;;;;8323477;28;20258;-63
2022/03/09 02:33:26;;;;;;;40.13;17.47;;;-2.50;99.90;;;;;;8353890;28;20233;-64
2022/03/09 02:37:30;;;;;;;38.23;16.63;;;-2.50;99.90;;;;;;8328170;28;20228;-64
2022/03/09 02:41:33;;;;;;;31.27;16.63;;;-2.50;99.90;;;;;;8350413;28;20301;-65
2022/03/09 02:45:34;;;;;;;36.73;17.20;;;-2.50;99.90;;;;;;8350267;28;20221;-64
2022/03/09 02:49:35;;;;;;;32.27;16.27;;;-2.50;99.90;;;;;;8345784;28;20214;-66
2022/03/09 02:53:36;;;;;;;31.50;15.20;;;-2.50;99.90;;;;;;8335550;28;20239;-65
2022/03/09 02:57:37;;;;;;;41.07;17.93;;;-2.50;99.90;;;;;;8352150;28;20221;-66
2022/03/09 03:01:38;;;;;;;37.70;19.03;;;-2.40;99.90;;;;;;8344003;28;20692;-64
2022/03/09 03:05:39;;;;;;;45.30;21.50;;;-2.30;99.90;;;;;;8333914;28;20294;-64
2022/03/09 03:09:39;;;;;;;43.30;19.83;;;-2.20;99.90;;;;;;8343690;28;20206;-64
2022/03/09 03:13:41;;;;;;;43.47;19.63;;;-2.20;1.00;;;;;;8351395;28;20251;-64
2022/03/09 03:17:41;;;;;;;47.17;21.00;;;-2.20;1.00;;;;;;8333168;28;20213;-65
2022/03/09 03:21:42;;;;;;;43.07;21.10;;;-2.40;1.00;;;;;;8323845;28;20201;-64
2022/03/09 03:25:43;;;;;;;41.73;17.27;;;-2.50;1.00;;;;;;8330442;28;20222;-64
2022/03/09 03:29:44;;;;;;;38.87;17.70;;;-2.60;1.00;;;;;;8331003;28;20277;-65
2022/03/09 03:33:45;;;;;;;42.70;19.13;;;-2.80;1.00;;;;;;8343448;28;20239;-63
2022/03/09 03:37:46;;;;;;;33.57;17.20;;;-2.90;35.10;;;;;;8352286;28;20213;-64
2022/03/09 03:41:47;;;;;;;40.13;18.57;;;-3.00;99.90;;;;;;8330677;28;20197;-65
2022/03/09 03:45:47;;;;;;;40.07;17.80;;;-3.10;99.90;;;;;;8333392;28;20233;-64
2022/03/09 03:49:48;;;;;;;46.07;20.03;;;-3.00;99.90;;;;;;8333589;28;20221;-63
2022/03/09 03:53:49;;;;;;;40.30;19.77;;;-2.90;99.90;;;;;;8327292;28;20209;-64
2022/03/09 03:57:50;;;;;;;42.30;18.27;;;-2.80;99.90;;;;;;8344128;28;20347;-64
2022/03/09 04:01:51;;;;;;;37.10;17.47;;;-2.80;99.90;;;;;;8350028;28;20271;-64
2022/03/09 04:05:51;;;;;;;36.13;17.57;;;-2.80;99.90;;;;;;8334501;28;20271;-64
2022/03/09 04:09:53;;;;;;;37.03;18.23;;;-2.80;99.90;;;;;;8352457;28;20262;-65
2022/03/09 04:13:54;;;;;;;43.57;19.20;;;-2.80;99.90;;;;;;8352363;28;20202;-66
2022/03/09 04:17:55;;;;;;;31.53;15.77;;;-2.70;99.90;;;;;;8333553;28;20265;-64
2022/03/09 04:21:56;;;;;;;36.17;17.37;;;-2.80;99.90;;;;;;8333672;28;20216;-64
2022/03/09 04:25:57;;;;;;;35.00;15.47;;;-3.00;99.90;;;;;;8352947;28;20275;-65
2022/03/09 04:29:57;;;;;;;33.13;16.23;;;-3.10;99.90;;;;;;8351128;28;20208;-65
2022/03/09 04:33:58;;;;;;;32.00;15.97;;;-3.10;99.90;;;;;;8351193;28;20213;-63
2022/03/09 04:37:59;;;;;;;36.33;16.17;;;-3.00;99.90;;;;;;8331890;28;20216;-64
2022/03/09 04:42:00;;;;;;;32.73;14.73;;;-3.10;99.90;;;;;;8341615;28;20206;-65
2022/03/09 04:46:01;;;;;;;30.33;13.53;;;-3.20;99.90;;;;;;8327585;28;20232;-64
2022/03/09 04:50:02;;;;;;;32.20;14.50;;;-3.30;99.90;;;;;;8323527;28;20213;-65
2022/03/09 04:54:03;;;;;;;35.40;15.83;;;-3.30;99.90;;;;;;8324917;28;20258;-64
2022/03/09 04:58:04;;;;;;;30.10;13.93;;;-3.30;99.90;;;;;;8332516;28;20204;-63
2022/03/09 05:02:04;;;;;;;30.13;14.07;;;-3.30;99.90;;;;;;8349259;28;20224;-64
2022/03/09 05:06:05;;;;;;;34.10;15.20;;;-3.30;99.90;;;;;;8351141;28;20300;-65
2022/03/09 05:10:07;;;;;;;28.60;13.87;;;-3.30;99.90;;;;;;8331228;28;20212;-63
2022/03/09 05:14:08;;;;;;;35.40;14.60;;;-3.30;99.90;;;;;;8332105;28;20210;-65
2022/03/09 05:18:09;;;;;;;30.10;14.13;;;-3.20;99.90;;;;;;8331343;28;20209;-64
2022/03/09 05:22:10;;;;;;;27.53;14.53;;;-3.20;99.90;;;;;;8332605;28;20320;-64
2022/03/09 05:26:11;;;;;;;29.27;14.40;;;-3.10;99.90;;;;;;8332731;28;20229;-65
2022/03/09 05:30:12;;;;;;;26.97;14.33;;;-3.20;99.90;;;;;;8349428;28;20205;-64
2022/03/09 05:34:13;;;;;;;29.77;15.43;;;-3.30;99.90;;;;;;8331594;28;20198;-63
2022/03/09 05:38:15;;;;;;;30.13;14.23;;;-3.30;99.90;;;;;;8346900;28;20209;-65
2022/03/09 05:42:16;;;;;;;34.50;15.73;;;-3.40;99.90;;;;;;8348622;28;20239;-65
2022/03/09 05:46:16;;;;;;;32.90;15.30;;;-3.50;99.90;;;;;;8329139;28;20228;-65
2022/03/09 05:50:18;;;;;;;33.53;14.97;;;-3.50;99.90;;;;;;8342091;28;20229;-64
2022/03/09 05:54:20;;;;;;;35.00;15.63;;;-3.50;99.90;;;;;;8330277;28;20261;-64
2022/03/09 05:58:21;;;;;;;39.50;18.40;;;-3.40;99.90;;;;;;8339259;28;20258;-65
2022/03/09 06:02:22;;;;;;;41.10;18.77;;;-3.30;99.90;;;;;;8339755;28;20220;-63
2022/03/09 06:06:22;;;;;;;43.57;18.10;;;-3.20;99.90;;;;;;8329140;28;20217;-63
2022/03/09 06:10:25;;;;;;;33.17;16.87;;;-3.10;99.90;;;;;;8320237;28;20216;-65
2022/03/09 06:14:26;;;;;;;28.30;14.07;;;-3.10;99.90;;;;;;8327133;28;20239;-64
2022/03/09 06:18:27;;;;;;;27.93;14.13;;;-3.00;99.90;;;;;;8347729;28;20257;-64
2022/03/09 06:22:29;;;;;;;31.17;13.60;;;-2.90;99.90;;;;;;8331044;28;20200;-65
2022/03/09 06:26:30;;;;;;;30.73;14.03;;;-2.80;99.90;;;;;;8349333;28;20252;-65
2022/03/09 06:30:31;;;;;;;29.53;13.27;;;-2.60;99.90;;;;;;8325449;28;20209;-65
2022/03/09 06:34:31;;;;;;;28.13;14.03;;;-2.40;99.90;;;;;;8342809;28;20288;-65
2022/03/09 06:38:33;;;;;;;25.20;11.70;;;-2.10;99.90;;;;;;8325806;28;20201;-65
2022/03/09 06:42:34;;;;;;;21.70;11.17;;;-1.60;99.90;;;;;;8345193;28;20225;-65
2022/03/09 06:46:36;;;;;;;25.23;12.33;;;-1.20;99.90;;;;;;8327727;28;20225;-66
2022/03/09 06:50:36;;;;;;;24.73;11.27;;;-0.90;99.90;;;;;;8315081;28;20202;-66
2022/03/09 06:54:38;;;;;;;26.03;12.23;;;-0.60;99.90;;;;;;8325484;28;20201;-65
2022/03/09 06:58:38;;;;;;;24.03;10.73;;;-0.30;99.90;;;;;;8344021;28;20289;-66
2022/03/09 07:02:40;;;;;;;20.77;10.70;;;-0.10;1.00;;;;;;8339197;28;20205;-65
2022/03/09 07:06:41;;;;;;;20.17;11.17;;;0.10;1.00;;;;;;8323847;28;20219;-65
2022/03/09 07:10:42;;;;;;;18.77;10.67;;;0.40;10.90;;;;;;8327061;28;20209;-65
2022/03/09 07:14:42;;;;;;;21.63;10.07;;;0.70;99.90;;;;;;8329612;28;20289;-66
2022/03/09 07:18:43;;;;;;;17.83;9.77;;;0.90;99.90;;;;;;8352803;28;20202;-66
2022/03/09 07:22:45;;;;;;;15.93;9.57;;;1.10;99.90;;;;;;8353678;28;20206;-65
2022/03/09 07:26:46;;;;;;;20.80;10.47;;;1.30;99.90;;;;;;8335269;28;20369;-65
2022/03/09 07:30:47;;;;;;;16.07;8.40;;;1.50;1.00;;;;;;8334239;28;20201;-65
2022/03/09 07:34:48;;;;;;;19.30;9.37;;;1.80;99.90;;;;;;8335763;28;20209;-65
2022/03/09 07:38:48;;;;;;;15.00;7.83;;;2.00;99.90;;;;;;8335620;28;20316;-65
2022/03/09 07:42:49;;;;;;;20.33;8.30;;;2.30;99.90;;;;;;8334219;28;20259;-65
2022/03/09 07:46:51;;;;;;;16.30;8.57;;;2.60;99.90;;;;;;8334776;28;20217;-65
2022/03/09 07:50:52;;;;;;;13.00;7.53;;;2.90;99.90;;;;;;8334334;28;20201;-65
2022/03/09 07:54:52;;;;;;;16.43;8.23;;;3.10;1.00;;;;;;8352825;28;20224;-65
2022/03/09 07:58:53;;;;;;;12.27;7.93;;;3.20;99.90;;;;;;8332128;28;20310;-64
2022/03/09 08:02:54;;;;;;;11.93;6.80;;;3.40;99.90;;;;;;8352169;28;20277;-64
2022/03/09 08:06:55;;;;;;;12.53;7.23;;;3.60;99.90;;;;;;8352970;28;20222;-64
2022/03/09 08:10:56;;;;;;;10.93;5.80;;;3.80;99.90;;;;;;8351904;28;20229;-64
2022/03/09 08:14:57;;;;;;;8.03;5.03;;;3.90;1.00;;;;;;8334455;28;20248;-64
2022/03/09 08:18:58;;;;;;;9.57;5.00;;;4.10;1.00;;;;;;8333359;28;20605;-65
2022/03/09 08:22:58;;;;;;;10.27;4.80;;;4.30;1.00;;;;;;8352431;28;20252;-63
2022/03/09 08:27:00;;;;;;;10.70;5.63;;;4.40;1.00;;;;;;8333353;28;20374;-64
2022/03/09 08:31:01;;;;;;;9.37;5.10;;;4.60;1.00;;;;;;8328689;28;20209;-64
2022/03/09 08:35:02;;;;;;;13.17;6.40;;;4.70;99.90;;;;;;8333681;28;20243;-66
2022/03/09 08:39:03;;;;;;;11.17;6.20;;;4.90;1.00;;;;;;8332142;28;20269;-63
2022/03/09 08:43:04;;;;;;;12.13;6.33;;;5.10;99.90;;;;;;8333293;28;20219;-64
2022/03/09 08:47:06;;;;;;;11.53;6.37;;;5.20;99.90;;;;;;8350634;28;20209;-64
2022/03/09 08:51:07;;;;;;;7.63;5.57;;;5.40;99.90;;;;;;8347629;28;20216;-64
2022/03/09 08:55:09;;;;;;;10.90;6.50;;;5.60;99.90;;;;;;8344941;28;20294;-65
2022/03/09 08:59:09;;;;;;;11.00;5.77;;;5.70;99.90;;;;;;8330672;28;20205;-64
2022/03/09 09:03:11;;;;;;;13.50;7.43;;;5.90;99.90;;;;;;8347118;28;20202;-65
2022/03/09 09:07:11;;;;;;;10.33;5.70;;;6.20;99.90;;;;;;8342452;28;20217;-64
2022/03/09 09:11:12;;;;;;;11.30;5.73;;;6.30;1.00;;;;;;8327513;28;20228;-64
2022/03/09 09:15:14;;;;;;;10.80;6.13;;;6.50;1.00;;;;;;8331559;28;20228;-63
2022/03/09 09:19:15;;;;;;;8.27;4.87;;;6.70;1.00;;;;;;8322027;28;20193;-64
2022/03/09 09:23:16;;;;;;;8.87;5.10;;;6.90;1.00;;;;;;8324235;28;20654;-65
2022/03/09 09:27:17;;;;;;;8.33;4.70;;;7.10;1.00;;;;;;8329296;28;20202;-64
2022/03/09 09:31:18;;;;;;;7.77;4.70;;;7.20;1.00;;;;;;8326441;28;20202;-63
2022/03/09 09:35:19;;;;;;;8.27;4.30;;;7.40;99.90;;;;;;8331604;28;20209;-67
2022/03/09 09:39:21;;;;;;;7.63;3.70;;;7.50;99.90;;;;;;8322995;28;20209;-63
2022/03/09 09:43:23;;;;;;;4.53;3.43;;;7.60;99.90;;;;;;8327477;28;20309;-64
2022/03/09 09:47:27;;;;;;;6.83;3.90;;;7.70;99.90;;;;;;8330224;28;20206;-65
2022/03/09 09:51:28;;;;;;;6.13;3.77;;;7.70;99.90;;;;;;8342703;28;20225;-63
2022/03/09 09:55:29;;;;;;;10.10;3.97;;;8.00;99.90;;;;;;8343142;28;20305;-65
2022/03/09 09:59:30;;;;;;;8.10;4.07;;;8.10;99.90;;;;;;8329255;28;20209;-66
2022/03/09 10:03:31;;;;;;;7.07;3.80;;;8.20;99.90;;;;;;8323087;28;20225;-63
2022/03/09 10:07:32;;;;;;;5.27;3.47;;;8.20;99.90;;;;;;8327346;28;20231;-63
2022/03/09 10:11:45;;;;;;;6.70;3.63;;;8.20;99.90;;;;;;8320748;28;20256;-64
2022/03/09 10:16:09;;;;;;;6.30;3.83;;;8.10;99.90;;;;;;8340635;28;20198;-61
2022/03/09 10:20:11;;;;;;;6.87;3.77;;;8.10;99.90;;;;;;8333553;28;20213;-63
2022/03/09 10:24:12;;;;;;;4.10;2.97;;;8.20;99.90;;;;;;8335933;28;20219;-63
2022/03/09 10:28:13;;;;;;;14.17;5.90;;;8.30;99.90;;;;;;8341974;28;20228;-62
2022/03/09 10:32:14;;;;;;;6.50;3.77;;;8.60;99.90;;;;;;8329163;28;20260;-64
2022/03/09 10:36:17;;;;;;;5.23;3.70;;;8.60;99.90;;;;;;8325852;28;20341;-64
2022/03/09 10:40:20;;;;;;;6.50;4.20;;;8.60;99.90;;;;;;8343392;28;20213;-65
2022/03/09 10:44:44;;;;;;;5.53;3.43;;;8.70;99.90;;;;;;8323907;28;20217;-64
2022/03/09 10:48:52;;;;;;;8.57;3.97;;;8.80;99.90;;;;;;8318388;28;20644;-64
2022/03/09 10:52:58;;;;;;;8.23;4.87;;;8.80;99.90;;;;;;8348769;28;20201;-63
2022/03/09 10:57:11;;;;;;;5.40;3.83;;;8.70;99.90;;;;;;8328726;28;20288;-64
2022/03/09 11:01:17;;;;;;;5.43;3.60;;;8.90;99.90;;;;;;8350658;28;20218;-64
2022/03/09 11:05:17;;;;;;;5.00;3.50;;;9.00;99.90;;;;;;8350951;28;20218;-63
2022/03/09 11:09:19;;;;;;;5.33;3.80;;;9.10;99.90;;;;;;8321309;28;20245;-64
2022/03/09 11:13:19;;;;;;;4.53;3.40;;;8.90;99.90;;;;;;8344662;28;20220;-64
2022/03/09 11:17:23;;;;;;;5.53;3.93;;;8.90;99.90;;;;;;8331585;28;20205;-64
2022/03/09 11:21:24;;;;;;;4.70;3.60;;;9.00;99.90;;;;;;8334849;28;20210;-63
2022/03/09 11:25:25;;;;;;;4.57;3.10;;;8.80;99.90;;;;;;8334161;28;20241;-64
2022/03/09 11:29:35;;;;;;;6.30;4.00;;;8.90;99.90;;;;;;8334493;28;20198;-63
2022/03/09 11:33:53;;;;;;;5.67;4.00;;;9.20;99.90;;;;;;8350618;28;20228;-63
2022/03/09 11:37:54;;;;;;;6.97;3.10;;;9.10;99.90;;;;;;8346213;28;20209;-62
2022/03/09 11:42:19;;;;;;;5.93;3.93;;;9.30;99.90;;;;;;8351239;28;20208;-64
2022/03/09 11:46:21;;;;;;;6.47;4.20;;;9.40;99.90;;;;;;8326884;28;20368;-62
2022/03/09 11:50:25;;;;;;;5.10;3.30;;;9.40;99.90;;;;;;8327033;28;20201;-63
2022/03/09 11:54:55;;;;;;;4.80;3.20;;;9.40;99.90;;;;;;8330866;28;20269;-66
2022/03/09 11:59:11;;;;;;;5.47;3.67;;;9.30;99.90;;;;;;8332185;28;20218;-66
2022/03/09 12:03:38;;;;;;;7.53;3.67;;;9.20;99.90;;;;;;8331566;28;20205;-64
2022/03/09 12:07:40;;;;;;;6.23;4.37;;;9.20;99.90;;;;;;8329924;28;20216;-64
2022/03/09 12:12:13;;;;;;;4.60;3.13;;;9.30;99.90;;;;;;8351197;28;20213;-64
2022/03/09 12:16:24;;;;;;;5.53;3.73;;;9.50;99.90;;;;;;8284452;28;20222;-65
2022/03/09 12:20:29;;;;;;;6.67;3.67;;;9.40;99.90;;;;;;8326425;28;20207;-65
2022/03/09 12:24:33;;;;;;;4.53;3.43;;;9.30;99.90;;;;;;8350830;28;20293;-62
2022/03/09 12:28:35;;;;;;;6.17;3.63;;;9.40;99.90;;;;;;8326971;28;20223;-65
2022/03/09 12:32:41;;;;;;;5.50;3.37;;;9.60;99.90;;;;;;8333306;28;20221;-65
2022/03/09 12:36:42;;;;;;;5.03;3.20;;;9.50;99.90;;;;;;8351311;28;20208;-65
2022/03/09 12:40:45;;;;;;;5.53;3.23;;;9.50;99.90;;;;;;8332724;28;20224;-66
2022/03/09 12:44:47;;;;;;;6.37;3.57;;;9.70;99.90;;;;;;8349824;28;20221;-63
2022/03/09 12:48:48;;;;;;;6.83;3.73;;;9.90;99.90;;;;;;8343591;28;20202;-63
2022/03/09 12:52:55;;;;;;;4.60;3.40;;;9.80;99.90;;;;;;8344611;28;20225;-67
2022/03/09 12:56:56;;;;;;;6.97;3.60;;;9.70;99.90;;;;;;8341625;28;20316;-64
2022/03/09 13:01:04;;;;;;;4.00;3.27;;;9.70;99.90;;;;;;8325181;28;20255;-65
2022/03/09 13:05:05;;;;;;;3.57;2.67;;;9.90;99.90;;;;;;8325582;28;20257;-63
2022/03/09 13:09:21;;;;;;;5.73;3.07;;;10.10;99.90;;;;;;8342888;28;20229;-65
2022/03/09 13:13:32;;;;;;;4.17;2.80;;;10.20;90.20;;;;;;8325099;28;20214;-65
2022/03/09 13:17:32;;;;;;;3.70;2.57;;;10.40;46.40;;;;;;8349565;28;20208;-66
2022/03/09 13:21:34;;;;;;;5.33;3.03;;;10.30;49.40;;;;;;8346586;28;20224;-62
2022/03/09 13:25:35;;;;;;;5.30;3.57;;;10.50;47.50;;;;;;8346083;28;20225;-65
2022/03/09 13:29:42;;;;;;;4.03;3.10;;;10.60;37.10;;;;;;8348643;28;20271;-63
2022/03/09 13:33:47;;;;;;;3.90;3.07;;;10.50;45.70;;;;;;8333071;28;20202;-67
2022/03/09 13:37:49;;;;;;;6.50;2.93;;;10.40;55.20;;;;;;8349037;28;20209;-66
2022/03/09 13:41:50;;;;;;;4.60;2.83;;;10.20;57.90;;;;;;8340576;28;20245;-66
2022/03/09 13:45:51;;;;;;;6.60;4.00;;;10.10;90.00;;;;;;8327708;28;20226;-64
2022/03/09 13:49:52;;;;;;;5.43;3.30;;;10.30;45.50;;;;;;8341301;28;20205;-66
2022/03/09 13:54:03;;;;;;;7.27;4.47;;;10.40;40.60;;;;;;8326880;28;20287;-62
2022/03/09 13:58:06;;;;;;;5.90;4.10;;;10.50;58.00;;;;;;8328176;28;20635;-62
2022/03/09 14:02:23;;;;;;;5.90;3.20;;;10.70;44.00;;;;;;8323762;28;20244;-63
2022/03/09 14:06:25;;;;;;;4.93;3.50;;;10.60;33.80;;;;;;8323283;28;20268;-65
2022/03/09 14:10:28;;;;;;;6.80;3.53;;;10.60;33.90;;;;;;8346639;28;20267;-66
2022/03/09 14:14:38;;;;;;;5.23;3.47;;;10.50;25.70;;;;;;8341398;28;20217;-64
2022/03/09 14:18:39;;;;;;;8.80;5.90;;;10.50;26.30;;;;;;8330519;28;20233;-63
2022/03/09 14:22:44;;;;;;;5.83;4.37;;;10.60;20.40;;;;;;8323502;28;20230;-64
2022/03/09 14:26:47;;;;;;;4.80;3.83;;;10.60;21.10;;;;;;8350790;28;20243;-64
2022/03/09 14:30:48;;;;;;;5.67;4.00;;;10.40;39.40;;;;;;8335211;28;20202;-64
2022/03/09 14:34:48;;;;;;;5.97;4.27;;;10.40;17.60;;;;;;8354546;28;20221;-64
2022/03/09 14:38:49;;;;;;;12.07;7.47;;;10.30;16.90;;;;;;8332618;28;20209;-64
2022/03/09 14:42:52;;;;;;;9.90;6.43;;;10.30;17.00;;;;;;8327827;28;20209;-63
2022/03/09 14:46:55;;;;;;;13.47;7.40;;;10.40;18.70;;;;;;8353017;28;20217;-63
2022/03/09 14:50:56;;;;;;;10.67;5.70;;;10.30;21.00;;;;;;8331832;28;20235;-65
2022/03/09 14:54:58;;;;;;;10.20;5.93;;;10.30;19.50;;;;;;8331642;28;20231;-63
2022/03/09 14:58:59;;;;;;;6.70;4.70;;;10.30;25.10;;;;;;8328093;28;20219;-63
2022/03/09 15:02:59;;;;;;;8.03;4.87;;;10.30;24.40;;;;;;8331244;28;20238;-64
2022/03/09 15:07:00;;;;;;;9.63;5.23;;;10.20;25.60;;;;;;8331451;28;20320;-63
2022/03/09 15:11:01;;;;;;;8.57;4.50;;;10.10;28.50;;;;;;8335065;28;20201;-65
2022/03/09 15:15:04;;;;;;;6.87;4.80;;;10.00;39.10;;;;;;8350864;28;20289;-65
2022/03/09 15:19:06;;;;;;;8.43;5.20;;;10.00;39.90;;;;;;8320591;28;20209;-68
2022/03/09 15:23:07;;;;;;;6.73;4.80;;;10.00;42.90;;;;;;8329492;28;20222;-64
2022/03/09 15:27:08;;;;;;;9.30;4.60;;;9.90;49.80;;;;;;8335299;28;20253;-65
2022/03/09 15:31:09;;;;;;;8.37;4.40;;;9.80;54.40;;;;;;8334740;28;20224;-65
2022/03/09 15:35:10;;;;;;;10.20;4.67;;;9.70;58.30;;;;;;8335767;28;20603;-65
2022/03/09 15:39:10;;;;;;;8.83;5.37;;;9.60;68.90;;;;;;8349504;28;20209;-64
2022/03/09 15:43:12;;;;;;;7.30;4.70;;;9.60;75.50;;;;;;8321350;28;20237;-65
2022/03/09 15:47:13;;;;;;;10.33;6.07;;;9.50;81.40;;;;;;8333509;28;20646;-64
2022/03/09 15:51:16;;;;;;;12.73;8.40;;;9.40;93.80;;;;;;8332334;28;20300;-64
2022/03/09 15:55:20;;;;;;;19.03;10.77;;;9.30;95.90;;;;;;8329260;28;20201;-63
2022/03/09 15:59:21;;;;;;;17.93;10.63;;;9.20;99.90;;;;;;8332900;28;20221;-64
2022/03/09 16:03:22;;;;;;;9.13;5.73;;;9.10;99.90;;;;;;8332877;28;20284;-65
2022/03/09 16:07:23;;;;;;;8.73;5.23;;;9.10;96.30;;;;;;8348246;28;20221;-64
2022/03/09 16:11:23;;;;;;;9.03;5.07;;;8.90;99.90;;;;;;8324103;28;20202;-64
2022/03/09 16:15:24;;;;;;;8.57;5.03;;;8.70;98.90;;;;;;8347920;28;20248;-63
2022/03/09 16:19:25;;;;;;;9.97;5.50;;;8.60;99.90;;;;;;8345590;28;20224;-65
2022/03/09 16:23:27;;;;;;;33.43;14.20;;;8.50;99.90;;;;;;8329090;28;20205;-63
2022/03/09 16:27:27;;;;;;;11.90;7.00;;;8.30;99.90;;;;;;8348018;28;20298;-65
2022/03/09 16:31:29;;;;;;;14.70;8.87;;;8.10;99.90;;;;;;8349232;28;20209;-65
2022/03/09 16:35:30;;;;;;;20.23;12.40;;;7.90;99.90;;;;;;8323672;28;20259;-63
2022/03/09 16:39:31;;;;;;;12.23;7.80;;;7.70;99.90;;;;;;8337583;28;20225;-65
2022/03/09 16:43:34;;;;;;;9.93;5.43;;;7.50;99.90;;;;;;8332341;28;20589;-64
2022/03/09 16:47:35;;;;;;;12.37;5.87;;;7.20;99.90;;;;;;8343632;28;20271;-65
2022/03/09 16:51:37;;;;;;;11.73;6.63;;;7.00;99.90;;;;;;8349823;28;20244;-64
2022/03/09 16:55:38;;;;;;;12.57;7.47;;;6.80;99.90;;;;;;8330926;28;20210;-64
2022/03/09 16:59:38;;;;;;;15.87;9.57;;;6.50;99.90;;;;;;8328362;28;20460;-63
2022/03/09 17:03:39;;;;;;;22.60;13.20;;;6.20;99.90;;;;;;8322162;28;20232;-65
2022/03/09 17:07:43;;;;;;;23.77;10.97;;;5.80;99.90;;;;;;8323668;28;20212;-64
2022/03/09 17:11:45;;;;;;;22.07;11.23;;;5.30;99.90;;;;;;8324416;28;20221;-65
2022/03/09 17:15:46;;;;;;;23.00;11.30;;;4.90;99.90;;;;;;8340654;28;20205;-65
2022/03/09 17:19:47;;;;;;;18.80;9.67;;;4.50;1.00;;;;;;8332357;28;20210;-65
2022/03/09 17:23:48;;;;;;;18.77;9.80;;;4.00;1.00;;;;;;8328067;28;20235;-66
2022/03/09 17:27:49;;;;;;;18.73;9.17;;;3.70;1.00;;;;;;8349975;28;20226;-64
2022/03/09 17:31:50;;;;;;;22.97;9.73;;;3.30;6.50;;;;;;8331306;28;20207;-64
2022/03/09 17:35:51;;;;;;;22.43;12.33;;;3.10;72.20;;;;;;8333579;28;20309;-64
2022/03/09 17:39:52;;;;;;;23.33;10.27;;;2.90;99.90;;;;;;8345517;28;20205;-64
2022/03/09 17:43:55;;;;;;;17.20;9.17;;;2.60;99.90;;;;;;8322747;28;20233;-64
2022/03/09 17:47:56;;;;;;;17.67;8.73;;;2.40;99.90;;;;;;8343258;28;20293;-64
2022/03/09 17:51:57;;;;;;;20.60;9.30;;;2.20;99.90;;;;;;8329464;28;20213;-64
2022/03/09 17:55:58;;;;;;;20.93;9.00;;;2.00;99.90;;;;;;8332083;28;20213;-64
2022/03/09 17:59:58;;;;;;;20.27;9.70;;;1.80;99.90;;;;;;8326291;28;20213;-64
2022/03/09 18:03:59;;;;;;;36.87;12.90;;;1.70;99.90;;;;;;8331040;28;20304;-65
2022/03/09 18:08:00;;;;;;;34.63;14.17;;;1.50;99.90;;;;;;8340520;28;20210;-65
2022/03/09 18:12:02;;;;;;;27.67;12.10;;;1.30;1.00;;;;;;8324173;28;20294;-65
2022/03/09 18:16:03;;;;;;;21.90;11.10;;;1.20;1.00;;;;;;8325999;28;20278;-66
2022/03/09 18:20:05;;;;;;;23.20;9.83;;;1.00;1.00;;;;;;8335515;28;20246;-65
2022/03/09 18:24:06;;;;;;;23.97;11.97;;;0.80;1.00;;;;;;8323141;28;20236;-64
2022/03/09 18:28:08;;;;;;;23.40;11.03;;;0.60;3.50;;;;;;8319071;28;20229;-65
2022/03/09 18:32:09;;;;;;;36.03;15.43;;;0.50;77.60;;;;;;8328384;28;20311;-65
2022/03/09 18:36:10;;;;;;;33.03;14.50;;;0.30;99.90;;;;;;8341719;28;20209;-65
2022/03/09 18:40:16;;;;;;;36.53;15.93;;;0.20;99.90;;;;;;8327970;28;20250;-64
2022/03/09 18:44:17;;;;;;;32.03;13.77;;;0.10;99.90;;;;;;8329785;28;20316;-64
2022/03/09 18:48:19;;;;;;;38.33;15.83;;;0.00;99.90;;;;;;8348277;28;20218;-64
2022/03/09 18:52:20;;;;;;;41.23;18.03;;;-0.10;99.90;;;;;;8340349;28;20279;-65
2022/03/09 18:56:21;;;;;;;35.87;18.23;;;-0.20;99.90;;;;;;8329942;28;20205;-64
2022/03/09 19:00:22;;;;;;;36.57;18.57;;;-0.30;99.90;;;;;;8346158;28;20356;-65
2022/03/09 19:04:23;;;;;;;49.17;20.60;;;-0.40;99.90;;;;;;8348704;28;20249;-66
2022/03/09 19:08:23;;;;;;;45.73;20.77;;;-0.50;1.00;;;;;;8330028;28;20561;-64
2022/03/09 19:12:24;;;;;;;57.70;24.47;;;-0.60;1.00;;;;;;8349411;28;20406;-64
2022/03/09 19:16:25;;;;;;;55.03;24.23;;;-0.60;1.00;;;;;;8336195;28;20232;-65
2022/03/09 19:20:26;;;;;;;46.33;21.27;;;-0.70;1.00;;;;;;8352761;28;20218;-64
2022/03/09 19:24:30;;;;;;;45.80;21.30;;;-0.90;39.70;;;;;;8335712;28;20226;-64
2022/03/09 19:28:31;;;;;;;45.77;18.70;;;-1.00;99.90;;;;;;8335076;28;20225;-64
2022/03/09 19:32:35;;;;;;;38.90;18.07;;;-1.10;99.90;;;;;;8335138;28;20232;-65
2022/03/09 19:36:37;;;;;;;40.43;19.03;;;-1.10;99.90;;;;;;8353447;28;20220;-65
2022/03/09 19:40:37;;;;;;;43.03;19.20;;;-1.20;99.90;;;;;;8334045;28;20213;-66
2022/03/09 19:44:38;;;;;;;37.13;16.33;;;-1.30;99.90;;;;;;8346221;28;20217;-64
2022/03/09 19:48:41;;;;;;;29.87;13.77;;;-1.40;1.00;;;;;;8330423;28;20209;-66
2022/03/09 19:52:42;;;;;;;29.57;14.33;;;-1.40;1.00;;;;;;8314917;28;20217;-65
2022/03/09 19:56:42;;;;;;;28.23;13.50;;;-1.50;1.00;;;;;;8351950;28;20270;-64
2022/03/09 20:00:43;;;;;;;29.80;13.90;;;-1.60;8.90;;;;;;8334796;28;20408;-64
2022/03/09 20:04:44;;;;;;;23.40;11.63;;;-1.60;90.00;;;;;;8332248;28;20312;-65
2022/03/09 20:08:45;;;;;;;25.13;9.67;;;-1.70;99.90;;;;;;8325049;28;20216;-64
2022/03/09 20:12:46;;;;;;;28.13;10.67;;;-1.70;99.90;;;;;;8326675;28;20350;-65
2022/03/09 20:16:47;;;;;;;21.17;9.97;;;-1.80;99.90;;;;;;8351267;28;20212;-65
2022/03/09 20:20:48;;;;;;;19.20;8.93;;;-1.80;99.90;;;;;;8331343;28;20239;-65
2022/03/09 20:24:49;;;;;;;19.73;9.03;;;-1.90;1.00;;;;;;8326833;28;20225;-65
2022/03/09 20:28:53;;;;;;;20.07;10.03;;;-2.00;1.00;;;;;;8331841;28;20197;-65
2022/03/09 20:32:57;;;;;;;23.37;9.43;;;-2.00;1.00;;;;;;8329556;28;20208;-64
2022/03/09 20:36:58;;;;;;;23.03;9.60;;;-2.10;99.90;;;;;;8350976;28;20244;-65
2022/03/09 20:41:00;;;;;;;18.80;8.47;;;-2.20;99.90;;;;;;8330234;28;20220;-65
2022/03/09 20:45:01;;;;;;;15.90;8.03;;;-2.30;99.90;;;;;;8332187;28;20221;-64
2022/03/09 20:49:02;;;;;;;13.83;6.77;;;-2.30;99.90;;;;;;8314309;28;20292;-65
2022/03/09 20:53:04;;;;;;;17.00;7.10;;;-2.40;1.00;;;;;;8350933;28;20216;-65